Time;durP1;ratioP1;P1;durP2;ratioP2;P2;SDS_P1;SDS_P2;PMS_P1;PMS_P2;Temp;Humidity;BMP_temperature;BMP_pressure;BME280_temperature;BME280_humidity;BME280_pressure;Samples;Min_cycle;Max_cycle;Signal;HPM_P1;HPM_P2
2022/07/03 00:08:30;;;;;;;6.70;5.80;;;;;;;14.13;74.86;100186.56;444870;1277;195767;-61
2022/07/03 00:18:36;;;;;;;15.70;6.70;;;;;;;14.28;75.22;100179.01;445694;1277;143051;-60
2022/07/03 00:28:44;;;;;;;7.30;6.40;;;;;;;14.38;75.28;100174.27;445688;1277;142347;-60
2022/07/03 00:38:50;;;;;;;11.60;6.30;;;;;;;14.41;75.38;100170.36;444928;1277;143322;-60
2022/07/03 00:48:57;;;;;;;7.70;5.60;;;;;;;14.41;75.49;100167.66;445395;1277;145143;-60
2022/07/03 00:59:03;;;;;;;7.10;5.90;;;;;;;14.40;75.51;100163.86;444884;1277;142513;-59
2022/07/03 01:09:09;;;;;;;7.20;6.10;;;;;;;14.45;75.74;100156.31;445732;1277;141979;-58
2022/07/03 01:19:30;;;;;;;6.30;4.70;;;;;;;14.52;75.82;100152.63;445729;1277;142776;-59
2022/07/03 01:29:52;;;;;;;7.00;5.10;;;;;;;14.56;75.74;100144.75;444950;1277;142727;-58
2022/07/03 01:40:01;;;;;;;7.00;5.60;;;;;;;14.52;75.85;100141.19;445725;1277;142453;-59
2022/07/03 01:50:09;;;;;;;7.10;5.10;;;;;;;14.45;75.92;100134.32;444903;1277;143630;-59
2022/07/03 02:00:17;;;;;;;8.30;5.80;;;;;;;14.34;76.07;100122.21;445618;1278;143239;-59
2022/07/03 02:10:30;;;;;;;9.60;6.60;;;;;;;14.13;76.27;100107.85;445557;1278;144281;-59
2022/07/03 02:20:41;;;;;;;7.30;4.90;;;;;;;13.91;76.59;100105.13;444421;1278;142270;-60
2022/07/03 02:30:52;;;;;;;7.80;6.40;;;;;;;13.72;76.65;100104.69;445404;1278;144068;-59
2022/07/03 02:41:03;;;;;;;6.10;5.30;;;;;;;13.60;76.88;100108.70;445396;1278;142208;-59
2022/07/03 02:51:18;;;;;;;6.70;5.20;;;;;;;13.64;76.91;100119.67;445377;1278;142903;-59
2022/07/03 03:01:37;;;;;;;8.50;5.90;;;;;;;13.74;76.81;100117.02;445450;1278;142883;-59
2022/07/03 03:11:45;;;;;;;6.10;5.40;;;;;;;13.94;77.01;100112.20;444727;1277;142819;-59
2022/07/03 03:22:00;;;;;;;6.60;5.40;;;;;;;14.23;76.69;100104.66;444844;1279;142009;-59
2022/07/03 03:32:08;;;;;;;7.80;6.10;;;;;;;14.77;76.15;100101.40;444810;1277;142362;-60
2022/07/03 03:42:14;;;;;;;7.90;5.30;;;;;;;15.54;75.39;100096.05;445359;1278;142538;-59
2022/07/03 03:52:20;;;;;;;6.40;5.00;;;;;;;16.11;74.27;100103.79;434887;1279;142256;-58
2022/07/03 04:02:26;;;;;;;9.00;6.20;;;;;;;17.07;73.69;100105.35;443861;1277;143013;-59
2022/07/03 04:12:31;;;;;;;6.00;4.90;;;;;;;18.67;71.68;100103.34;445420;1278;142322;-60
2022/07/03 04:22:37;;;;;;;4.30;2.80;;;;;;;24.15;66.72;100087.55;445351;1278;143287;-60
2022/07/03 04:32:43;;;;;;;2.10;1.70;;;;;;;26.29;61.14;100080.73;444555;1278;142877;-60
2022/07/03 04:42:49;;;;;;;2.00;1.30;;;;;;;32.99;52.66;100075.60;445414;1278;146137;-58
2022/07/03 04:52:54;;;;;;;1.10;1.00;;;;;;;33.51;46.09;100071.14;444954;1279;142032;-59
2022/07/03 05:03:00;;;;;;;1.70;1.50;;;;;;;37.93;39.98;100071.15;444625;1278;141639;-60
2022/07/03 05:13:06;;;;;;;1.70;0.70;;;;;;;39.33;35.92;100070.11;445444;1279;141875;-60
2022/07/03 05:23:12;;;;;;;1.40;0.90;;;;;;;39.38;32.56;100077.34;444632;1278;142143;-60
2022/07/03 05:33:17;;;;;;;2.00;0.90;;;;;;;41.87;30.42;100080.05;445320;1279;143178;-60
2022/07/03 05:43:23;;;;;;;1.00;0.70;;;;;;;44.01;28.12;100074.45;445381;1278;142240;-60
2022/07/03 05:53:29;;;;;;;1.50;0.50;;;;;;;42.87;25.98;100066.80;444598;1278;142091;-60
2022/07/03 06:03:35;;;;;;;1.80;0.60;;;;;;;40.76;25.07;100057.25;445299;1277;142088;-60
2022/07/03 06:13:41;;;;;;;2.20;0.80;;;;;;;41.92;24.41;100049.58;445334;1277;141364;-60
2022/07/03 06:23:47;;;;;;;0.90;0.70;;;;;;;45.28;22.41;100052.23;444564;1277;142352;-60
2022/07/03 06:33:53;;;;;;;2.80;1.40;;;;;;;48.19;20.82;100046.39;445305;1277;141399;-60
2022/07/03 06:43:58;;;;;;;1.80;1.70;;;;;;;51.17;18.27;100041.16;445512;1277;141299;-60
2022/07/03 06:54:03;;;;;;;;;;;;;;;51.88;16.72;100037.23;444938;1279;142144;-60
2022/07/03 07:04:09;;;;;;;2.60;2.40;;;;;;;50.30;15.74;100039.54;445644;1277;128796;-60
2022/07/03 07:14:15;;;;;;;2.90;2.50;;;;;;;48.05;16.15;100018.77;444802;1277;142529;-59
2022/07/03 07:24:20;;;;;;;3.10;3.00;;;;;;;47.72;15.85;99995.83;445646;1277;141743;-59
2022/07/03 07:34:26;;;;;;;3.60;3.40;;;;;;;48.20;15.66;99992.10;444829;1279;141037;-60
2022/07/03 07:44:32;;;;;;;4.00;3.90;;;;;;;48.57;15.44;99987.83;444769;1277;142880;-60
2022/07/03 07:54:37;;;;;;;2.00;0.80;;;;;;;49.23;14.83;99976.25;445677;1277;141661;-59
2022/07/03 08:15:08;;;;;;;3.40;1.10;;;;;;;34.92;21.62;99974.09;445157;1277;141305;-59
2022/07/03 08:25:14;;;;;;;2.20;0.50;;;;;;;32.31;23.57;99967.64;445078;1278;141005;-59
2022/07/03 08:35:18;;;;;;;;;;;;;;;30.82;25.36;99969.66;444385;1277;141724;-60
2022/07/03 08:45:25;;;;;;;0.70;0.40;;;;;;;29.82;26.68;99960.83;445208;1277;129773;-60
2022/07/03 08:55:31;;;;;;;3.90;1.00;;;;;;;28.67;27.91;99959.23;445015;1277;180803;-60
2022/07/03 09:05:40;;;;;;;1.30;0.50;;;;;;;28.51;28.96;99954.41;444013;1279;142204;-59
2022/07/03 09:15:46;;;;;;;0.50;0.30;;;;;;;28.84;28.94;99951.54;445223;1277;141186;-60
2022/07/03 09:25:58;;;;;;;1.00;0.60;;;;;;;28.57;29.15;99950.01;445221;1278;141000;-60
2022/07/03 09:36:04;;;;;;;0.50;0.40;;;;;;;28.18;29.70;99946.65;444933;1279;141974;-60
2022/07/03 09:46:09;;;;;;;0.70;0.60;;;;;;;28.31;29.87;99937.13;445250;1277;152370;-60
2022/07/03 09:56:16;;;;;;;2.40;0.80;;;;;;;27.49;30.64;99928.02;444035;1279;297890;-60
2022/07/03 10:06:22;;;;;;;3.00;1.10;;;;;;;26.96;31.69;99924.61;445061;1276;142690;-60
2022/07/03 10:16:28;;;;;;;0.50;0.50;;;;;;;26.94;31.81;99922.26;445506;1275;141518;-60
2022/07/03 10:26:34;;;;;;;1.20;0.80;;;;;;;26.95;31.31;99916.90;444846;1277;141561;-59
2022/07/03 10:36:41;;;;;;;0.50;0.50;;;;;;;26.75;31.79;99896.86;445586;1277;142964;-59
2022/07/03 10:46:47;;;;;;;2.80;0.80;;;;;;;26.74;31.72;99895.46;445486;1277;141552;-60
2022/07/03 10:57:19;;;;;;;1.20;0.50;;;;;;;26.87;32.10;99884.98;444745;1278;141961;-60
2022/07/03 11:07:25;;;;;;;0.40;0.40;;;;;;;26.63;32.21;99864.77;445555;1277;141349;-59
2022/07/03 11:17:31;;;;;;;0.80;0.50;;;;;;;26.42;32.70;99854.23;444754;1277;141376;-66
2022/07/03 11:27:37;;;;;;;1.70;0.40;;;;;;;26.23;32.89;99847.42;445493;1277;141530;-59
2022/07/03 11:37:43;;;;;;;0.40;0.30;;;;;;;26.50;33.07;99849.11;445471;1277;141105;-60
2022/07/03 11:47:50;;;;;;;1.80;0.70;;;;;;;26.67;33.02;99847.27;444775;1277;142049;-60
2022/07/03 11:57:55;;;;;;;0.90;0.50;;;;;;;26.41;33.24;99839.31;445559;1277;142432;-60
2022/07/03 12:08:06;;;;;;;3.10;1.20;;;;;;;26.13;33.51;99829.03;445575;1277;142139;-59
2022/07/03 12:18:12;;;;;;;1.70;0.70;;;;;;;26.14;33.58;99816.41;445638;1277;142241;-59
2022/07/03 12:28:17;;;;;;;1.00;1.00;;;;;;;26.06;33.97;99799.88;445593;1277;144704;-59
2022/07/03 12:38:33;;;;;;;1.10;0.60;;;;;;;26.06;34.28;99788.98;444861;1277;166568;-59
2022/07/03 12:48:48;;;;;;;1.40;0.70;;;;;;;26.16;34.25;99791.55;445556;1277;140939;-59
2022/07/03 13:09:17;;;;;;;1.20;0.70;;;;;;;27.05;33.93;99782.42;445610;1277;141325;-59
2022/07/03 13:19:24;;;;;;;0.70;0.40;;;;;;;26.87;33.90;99780.83;445567;1277;141826;-59
2022/07/03 13:29:29;;;;;;;0.20;0.20;;;;;;;26.34;34.30;99772.52;444891;1277;144107;-59
2022/07/03 13:39:35;;;;;;;1.70;0.50;;;;;;;26.29;34.38;99751.75;438295;1277;147232;-58
2022/07/03 13:49:41;;;;;;;0.80;0.60;;;;;;;26.40;34.56;99748.78;428549;1278;141402;-57
2022/07/03 13:59:47;;;;;;;2.50;0.80;;;;;;;27.00;34.42;99744.73;432855;1278;141971;-58
2022/07/03 14:09:53;;;;;;;1.00;0.50;;;;;;;27.25;34.31;99732.74;429760;1279;141576;-59
2022/07/03 14:19:59;;;;;;;0.70;0.70;;;;;;;27.32;34.02;99727.03;428038;1279;142341;-58
2022/07/03 14:40:30;;;;;;;0.60;0.60;;;;;;;27.50;33.86;99717.21;433831;1278;141887;-59
2022/07/03 14:50:36;;;;;;;1.10;0.60;;;;;;;27.56;33.52;99710.17;441717;1278;142299;-59
2022/07/03 15:00:50;;;;;;;1.20;0.50;;;;;;;27.26;33.93;99704.77;438516;1278;142154;-59
2022/07/03 15:10:57;;;;;;;0.70;0.50;;;;;;;26.78;34.01;99698.87;433982;1279;141840;-60
2022/07/03 15:21:03;;;;;;;3.00;0.70;;;;;;;26.50;34.42;99697.41;430972;1278;146535;-59
2022/07/03 15:31:10;;;;;;;0.50;0.50;;;;;;;26.73;34.36;99685.80;430729;1278;141536;-59
2022/07/03 15:41:27;;;;;;;1.90;0.50;;;;;;;26.93;34.72;99677.67;429391;1279;142996;-60
2022/07/03 15:51:35;;;;;;;;;;;;;;;27.14;34.28;99661.16;429900;1278;145901;-58
2022/07/03 16:12:12;;;;;;;2.60;1.40;;;;;;;26.51;35.22;99662.41;429562;1278;141189;-57
2022/07/03 16:22:19;;;;;;;1.00;0.80;;;;;;;25.89;35.92;99662.15;433596;1278;142924;-60
2022/07/03 16:32:34;;;;;;;1.90;0.90;;;;;;;25.61;36.60;99661.02;444533;1278;142234;-60
2022/07/03 16:42:47;;;;;;;1.30;0.70;;;;;;;25.50;37.00;99660.92;430699;1277;142223;-60
2022/07/03 16:52:54;;;;;;;1.00;0.50;;;;;;;25.23;37.50;99656.84;428231;1278;184241;-59
2022/07/03 17:03:00;;;;;;;0.80;0.80;;;;;;;25.02;37.76;99644.78;432198;1278;146675;-59
2022/07/03 17:13:06;;;;;;;3.30;0.60;;;;;;;24.73;38.57;99645.23;445528;1277;141551;-60
2022/07/03 17:23:14;;;;;;;1.50;0.90;;;;;;;24.43;39.08;99641.36;441488;1278;142022;-57
2022/07/03 17:33:20;;;;;;;1.30;1.20;;;;;;;24.26;39.96;99632.95;434683;1278;141325;-59
2022/07/03 17:43:28;;;;;;;1.30;0.80;;;;;;;23.99;40.60;99625.52;432434;1278;140794;-60
2022/07/03 17:53:35;;;;;;;1.10;0.70;;;;;;;23.71;41.40;99622.73;430154;1278;144637;-59
2022/07/03 18:03:41;;;;;;;2.00;1.20;;;;;;;24.38;40.82;99621.88;430625;1278;141140;-60
2022/07/03 18:13:55;;;;;;;1.10;1.00;;;;;;;23.80;40.97;99626.29;428266;1279;143034;-58
2022/07/03 18:24:03;;;;;;;0.70;0.70;;;;;;;23.21;42.16;99627.00;429026;1279;141596;-59
2022/07/03 18:34:09;;;;;;;2.30;0.80;;;;;;;22.81;43.02;99628.64;431158;1278;140893;-57
2022/07/03 18:44:15;;;;;;;0.80;0.80;;;;;;;22.49;43.57;99625.85;427516;1277;145095;-60
2022/07/03 18:54:28;;;;;;;3.00;0.80;;;;;;;22.15;44.30;99634.24;428039;1278;146396;-59
2022/07/03 19:04:45;;;;;;;2.20;1.10;;;;;;;21.82;45.06;99642.81;428148;1278;185872;-60
2022/07/03 19:15:00;;;;;;;1.50;1.20;;;;;;;21.48;45.97;99656.05;427523;1278;141756;-59
2022/07/03 19:25:07;;;;;;;0.90;0.80;;;;;;;21.21;46.87;99661.95;441464;1277;141696;-61
2022/07/03 19:35:13;;;;;;;2.60;1.20;;;;;;;20.96;47.62;99662.70;435204;1277;141880;-60
2022/07/03 19:45:20;;;;;;;0.90;0.90;;;;;;;20.77;48.28;99666.42;437532;1277;141403;-61
2022/07/03 19:55:26;;;;;;;1.70;1.60;;;;;;;20.58;48.81;99672.32;431782;1278;143283;-61
2022/07/03 20:05:31;;;;;;;1.80;1.30;;;;;;;20.40;49.10;99669.39;432175;1278;142101;-60
2022/07/03 20:15:37;;;;;;;1.20;1.10;;;;;;;20.22;49.56;99660.08;430311;1277;145052;-60
2022/07/03 20:25:44;;;;;;;2.30;1.10;;;;;;;20.05;49.84;99658.89;428198;1277;141793;-60
2022/07/03 20:35:50;;;;;;;1.80;1.40;;;;;;;19.95;50.20;99662.08;429517;1277;142566;-60
2022/07/03 20:45:56;;;;;;;1.50;1.10;;;;;;;19.77;50.65;99668.70;445238;1277;142567;-61
2022/07/03 20:56:02;;;;;;;4.60;1.50;;;;;;;19.58;51.24;99671.30;444799;1277;145259;-58
2022/07/03 21:06:25;;;;;;;3.70;1.50;;;;;;;19.38;52.14;99677.86;444414;1278;196391;-60
2022/07/03 21:16:31;;;;;;;3.80;2.00;;;;;;;19.15;53.08;99688.52;445189;1277;142743;-59
2022/07/03 21:26:37;;;;;;;3.70;2.00;;;;;;;19.16;53.55;99692.14;444112;1279;141898;-60
2022/07/03 21:36:43;;;;;;;2.90;2.00;;;;;;;19.28;54.18;99686.34;445721;1277;142239;-60
2022/07/03 21:46:51;;;;;;;3.80;1.90;;;;;;;19.15;55.59;99685.45;444736;1279;143482;-60
2022/07/03 21:56:57;;;;;;;2.70;2.40;;;;;;;18.92;57.16;99684.98;444409;1277;256315;-60
2022/07/03 22:07:02;;;;;;;3.20;2.70;;;;;;;18.68;58.91;99675.92;445610;1277;142635;-58
2022/07/03 22:17:08;;;;;;;4.60;3.40;;;;;;;18.51;60.32;99666.59;444720;1278;142261;-58
2022/07/03 22:27:14;;;;;;;3.00;2.80;;;;;;;18.35;61.37;99659.83;445395;1278;144212;-60
2022/07/03 22:37:21;;;;;;;4.80;3.20;;;;;;;18.19;62.62;99661.65;445398;1278;143355;-60
2022/07/03 22:47:26;;;;;;;3.60;3.30;;;;;;;18.04;63.40;99648.88;444671;1278;143163;-61
2022/07/03 22:57:32;;;;;;;6.30;4.10;;;;;;;17.88;64.42;99640.28;445423;1277;142787;-59
2022/07/03 23:07:38;;;;;;;4.90;4.50;;;;;;;17.74;65.41;99633.82;445460;1278;198996;-61
2022/07/03 23:17:44;;;;;;;5.20;4.80;;;;;;;17.57;66.40;99626.66;444691;1277;143055;-60
2022/07/03 23:27:49;;;;;;;3.80;3.40;;;;;;;17.40;67.05;99626.98;445376;1277;143569;-60
2022/07/03 23:37:55;;;;;;;4.50;3.60;;;;;;;17.22;67.56;99621.15;445387;1277;143743;-60
2022/07/03 23:48:01;;;;;;;4.70;3.80;;;;;;;17.05;68.28;99615.84;444706;1277;142939;-60
2022/07/03 23:58:07;;;;;;;4.20;3.90;;;;;;;16.88;68.87;99610.60;445491;1277;143368;-59
